sensor_id;sensor_type;location;lat;lon;timestamp;pressure;altitude;pressure_sealevel;temperature;humidity
40384;BME280;26097;42.366;23.818;2023-12-20T00:01:03;94347.63;;;-2.45;100.00
40384;BME280;26097;42.366;23.818;2023-12-20T00:04:03;94356.22;;;-2.49;100.00
40384;BME280;26097;42.366;23.818;2023-12-20T00:07:02;94349.28;;;-2.42;100.00
40384;BME280;26097;42.366;23.818;2023-12-20T00:10:05;94349.28;;;-2.42;100.00
40384;BME280;26097;42.366;23.818;2023-12-20T00:13:04;94346.81;;;-2.47;100.00
40384;BME280;26097;42.366;23.818;2023-12-20T00:16:04;94350.97;;;-2.41;100.00
40384;BME280;26097;42.366;23.818;2023-12-20T00:19:03;94350.03;;;-2.38;100.00
40384;BME280;26097;42.366;23.818;2023-12-20T00:22:03;94348.34;;;-2.39;100.00
40384;BME280;26097;42.366;23.818;2023-12-20T00:25:02;94334.06;;;-2.47;100.00
40384;BME280;26097;42.366;23.818;2023-12-20T00:28:02;94330.63;;;-2.46;100.00
40384;BME280;26097;42.366;23.818;2023-12-20T00:31:02;94323.81;;;-2.45;100.00
40384;BME280;26097;42.366;23.818;2023-12-20T00:34:01;94321.38;;;-2.50;100.00
40384;BME280;26097;42.366;23.818;2023-12-20T00:37:00;94315.28;;;-2.44;100.00
40384;BME280;26097;42.366;23.818;2023-12-20T00:40:00;94310.13;;;-2.41;100.00
40384;BME280;26097;42.366;23.818;2023-12-20T00:43:00;94314.50;;;-2.48;100.00
40384;BME280;26097;42.366;23.818;2023-12-20T00:45:59;94312.09;;;-2.54;100.00
40384;BME280;26097;42.366;23.818;2023-12-20T00:48:59;94308.72;;;-2.56;100.00
40384;BME280;26097;42.366;23.818;2023-12-20T00:51:58;94306.00;;;-2.48;100.00
40384;BME280;26097;42.366;23.818;2023-12-20T00:54:58;94306.06;;;-2.51;100.00
40384;BME280;26097;42.366;23.818;2023-12-20T00:57:57;94306.22;;;-2.59;100.00
40384;BME280;26097;42.366;23.818;2023-12-20T01:00:58;94301.94;;;-2.57;100.00
40384;BME280;26097;42.366;23.818;2023-12-20T01:03:57;94286.56;;;-2.54;100.00
40384;BME280;26097;42.366;23.818;2023-12-20T01:06:57;94289.94;;;-2.52;100.00
40384;BME280;26097;42.366;23.818;2023-12-20T01:09:56;94289.88;;;-2.50;100.00
40384;BME280;26097;42.366;23.818;2023-12-20T01:12:56;94273.84;;;-2.57;100.00
40384;BME280;26097;42.366;23.818;2023-12-20T01:15:55;94271.34;;;-2.59;100.00
40384;BME280;26097;42.366;23.818;2023-12-20T01:18:54;94267.06;;;-2.58;100.00
40384;BME280;26097;42.366;23.818;2023-12-20T01:21:54;94272.25;;;-2.61;100.00
40384;BME280;26097;42.366;23.818;2023-12-20T01:24:53;94268.91;;;-2.63;100.00
40384;BME280;26097;42.366;23.818;2023-12-20T01:27:52;94257.09;;;-2.67;100.00
40384;BME280;26097;42.366;23.818;2023-12-20T01:30:52;94248.63;;;-2.69;100.00
40384;BME280;26097;42.366;23.818;2023-12-20T01:33:51;94246.09;;;-2.71;100.00
40384;BME280;26097;42.366;23.818;2023-12-20T01:36:51;94249.53;;;-2.72;100.00
40384;BME280;26097;42.366;23.818;2023-12-20T01:39:50;94246.25;;;-2.77;100.00
40384;BME280;26097;42.366;23.818;2023-12-20T01:43:00;94241.06;;;-2.74;100.00
40384;BME280;26097;42.366;23.818;2023-12-20T01:46:00;94233.31;;;-2.69;100.00
40384;BME280;26097;42.366;23.818;2023-12-20T01:48:59;94240.16;;;-2.71;100.00
40384;BME280;26097;42.366;23.818;2023-12-20T01:51:59;94228.28;;;-2.73;100.00
40384;BME280;26097;42.366;23.818;2023-12-20T01:54:59;94223.28;;;-2.79;100.00
40384;BME280;26097;42.366;23.818;2023-12-20T01:58:02;94216.66;;;-2.86;100.00
40384;BME280;26097;42.366;23.818;2023-12-20T02:01:02;94217.56;;;-2.89;100.00
40384;BME280;26097;42.366;23.818;2023-12-20T02:04:01;94217.47;;;-2.85;100.00
40384;BME280;26097;42.366;23.818;2023-12-20T02:07:02;94207.50;;;-2.95;100.00
40384;BME280;26097;42.366;23.818;2023-12-20T02:10:05;94200.78;;;-2.99;100.00
40384;BME280;26097;42.366;23.818;2023-12-20T02:13:05;94197.38;;;-2.98;100.00
40384;BME280;26097;42.366;23.818;2023-12-20T02:16:04;94193.09;;;-2.97;100.00
40384;BME280;26097;42.366;23.818;2023-12-20T02:19:13;94193.06;;;-2.96;100.00
40384;BME280;26097;42.366;23.818;2023-12-20T02:22:14;94180.38;;;-2.99;100.00
40384;BME280;26097;42.366;23.818;2023-12-20T02:25:13;94177.78;;;-2.97;100.00
40384;BME280;26097;42.366;23.818;2023-12-20T02:28:13;94178.72;;;-3.02;100.00
40384;BME280;26097;42.366;23.818;2023-12-20T02:31:12;94174.44;;;-2.99;100.00
40384;BME280;26097;42.366;23.818;2023-12-20T02:34:12;94171.00;;;-2.98;100.00
40384;BME280;26097;42.366;23.818;2023-12-20T02:37:11;94163.44;;;-3.02;100.00
40384;BME280;26097;42.366;23.818;2023-12-20T02:40:10;94166.03;;;-3.03;100.00
40384;BME280;26097;42.366;23.818;2023-12-20T02:43:10;94165.09;;;-2.99;100.00
40384;BME280;26097;42.366;23.818;2023-12-20T02:46:10;94158.31;;;-3.02;100.00
40384;BME280;26097;42.366;23.818;2023-12-20T02:49:09;94159.28;;;-3.06;100.00
40384;BME280;26097;42.366;23.818;2023-12-20T02:52:08;94159.34;;;-3.09;100.00
40384;BME280;26097;42.366;23.818;2023-12-20T02:55:08;94164.56;;;-3.15;100.00
40384;BME280;26097;42.366;23.818;2023-12-20T02:58:07;94161.19;;;-3.17;100.00
40384;BME280;26097;42.366;23.818;2023-12-20T03:01:06;94159.34;;;-3.09;100.00
40384;BME280;26097;42.366;23.818;2023-12-20T03:04:06;94157.38;;;-2.97;100.00
40384;BME280;26097;42.366;23.818;2023-12-20T03:07:05;94157.44;;;-3.01;100.00
40384;BME280;26097;42.366;23.818;2023-12-20T03:10:05;94155.00;;;-3.05;100.00
40384;BME280;26097;42.366;23.818;2023-12-20T03:13:06;94145.78;;;-3.11;100.00
40384;BME280;26097;42.366;23.818;2023-12-20T03:16:10;94145.78;;;-3.11;100.00
40384;BME280;26097;42.366;23.818;2023-12-20T03:19:09;94140.81;;;-3.17;100.00
40384;BME280;26097;42.366;23.818;2023-12-20T03:22:08;94154.44;;;-3.18;100.00
40384;BME280;26097;42.366;23.818;2023-12-20T03:25:08;94147.72;;;-3.22;100.00
40384;BME280;26097;42.366;23.818;2023-12-20T03:28:07;94151.94;;;-3.20;100.00
40384;BME280;26097;42.366;23.818;2023-12-20T03:31:06;94149.25;;;-3.15;100.00
40384;BME280;26097;42.366;23.818;2023-12-20T03:34:06;94148.13;;;-3.02;100.00
40384;BME280;26097;42.366;23.818;2023-12-20T03:37:05;94157.63;;;-3.08;100.00
40384;BME280;26097;42.366;23.818;2023-12-20T03:40:05;94148.28;;;-3.08;100.00
40384;BME280;26097;42.366;23.818;2023-12-20T03:43:04;94138.00;;;-3.06;100.00
40384;BME280;26097;42.366;23.818;2023-12-20T03:46:04;94139.00;;;-3.12;100.00
40384;BME280;26097;42.366;23.818;2023-12-20T03:49:03;94137.47;;;-3.19;100.00
40384;BME280;26097;42.366;23.818;2023-12-20T03:52:03;94131.63;;;-3.24;100.00
40384;BME280;26097;42.366;23.818;2023-12-20T03:55:02;94135.78;;;-3.20;100.00
40384;BME280;26097;42.366;23.818;2023-12-20T03:58:02;94126.31;;;-3.15;100.00
40384;BME280;26097;42.366;23.818;2023-12-20T04:01:01;94117.84;;;-3.17;100.00
40384;BME280;26097;42.366;23.818;2023-12-20T04:04:01;94111.88;;;-3.16;100.00
40384;BME280;26097;42.366;23.818;2023-12-20T04:07:01;94117.00;;;-3.16;100.00
40384;BME280;26097;42.366;23.818;2023-12-20T04:10:00;94108.75;;;-3.27;100.00
40384;BME280;26097;42.366;23.818;2023-12-20T04:13:00;94107.97;;;-3.31;100.00
40384;BME280;26097;42.366;23.818;2023-12-20T04:15:59;94110.66;;;-3.37;100.00
40384;BME280;26097;42.366;23.818;2023-12-20T04:18:58;94108.91;;;-3.35;100.00
40384;BME280;26097;42.366;23.818;2023-12-20T04:21:58;94104.56;;;-3.30;100.00
40384;BME280;26097;42.366;23.818;2023-12-20T04:24:57;94117.22;;;-3.25;100.00
40384;BME280;26097;42.366;23.818;2023-12-20T04:27:56;94116.25;;;-3.21;100.00
40384;BME280;26097;42.366;23.818;2023-12-20T04:30:56;94115.59;;;-3.30;100.00
40384;BME280;26097;42.366;23.818;2023-12-20T04:33:55;94101.38;;;-3.40;100.00
40384;BME280;26097;42.366;23.818;2023-12-20T04:36:55;94099.84;;;-3.49;100.00
40384;BME280;26097;42.366;23.818;2023-12-20T04:39:54;94099.03;;;-3.49;100.00
40384;BME280;26097;42.366;23.818;2023-12-20T04:42:54;94093.06;;;-3.48;100.00
40384;BME280;26097;42.366;23.818;2023-12-20T04:45:53;94085.34;;;-3.45;100.00
40384;BME280;26097;42.366;23.818;2023-12-20T04:48:52;94089.53;;;-3.42;100.00
40384;BME280;26097;42.366;23.818;2023-12-20T04:51:52;94079.38;;;-3.44;100.00
40384;BME280;26097;42.366;23.818;2023-12-20T04:54:51;94076.13;;;-3.51;100.00
40384;BME280;26097;42.366;23.818;2023-12-20T04:57:51;94070.19;;;-3.51;100.00
40384;BME280;26097;42.366;23.818;2023-12-20T05:00:50;94074.59;;;-3.60;100.00
40384;BME280;26097;42.366;23.818;2023-12-20T05:03:50;94072.09;;;-3.61;100.00
40384;BME280;26097;42.366;23.818;2023-12-20T05:06:49;94072.09;;;-3.61;100.00
40384;BME280;26097;42.366;23.818;2023-12-20T05:09:49;94075.34;;;-3.54;100.00
40384;BME280;26097;42.366;23.818;2023-12-20T05:12:48;94071.78;;;-3.47;100.00
40384;BME280;26097;42.366;23.818;2023-12-20T05:15:47;94066.78;;;-3.50;100.00
40384;BME280;26097;42.366;23.818;2023-12-20T05:18:48;94063.34;;;-3.49;100.00
40384;BME280;26097;42.366;23.818;2023-12-20T05:21:49;94063.34;;;-3.49;100.00
40384;BME280;26097;42.366;23.818;2023-12-20T05:24:48;94062.56;;;-3.53;100.00
40384;BME280;26097;42.366;23.818;2023-12-20T05:27:48;94062.59;;;-3.54;100.00
40384;BME280;26097;42.366;23.818;2023-12-20T05:30:47;94061.78;;;-3.56;100.00
40384;BME280;26097;42.366;23.818;2023-12-20T05:33:47;94065.22;;;-3.58;100.00
40384;BME280;26097;42.366;23.818;2023-12-20T05:36:46;94061.78;;;-3.56;100.00
40384;BME280;26097;42.366;23.818;2023-12-20T05:39:45;94044.75;;;-3.54;100.00
40384;BME280;26097;42.366;23.818;2023-12-20T05:42:45;94043.06;;;-3.54;100.00
40384;BME280;26097;42.366;23.818;2023-12-20T05:45:44;94039.66;;;-3.54;100.00
40384;BME280;26097;42.366;23.818;2023-12-20T05:48:43;94033.53;;;-3.46;100.00
40384;BME280;26097;42.366;23.818;2023-12-20T05:51:43;94027.50;;;-3.41;100.00
40384;BME280;26097;42.366;23.818;2023-12-20T05:54:42;94037.88;;;-3.49;100.00
40384;BME280;26097;42.366;23.818;2023-12-20T05:57:41;94034.47;;;-3.50;100.00
40384;BME280;26097;42.366;23.818;2023-12-20T06:00:42;94029.41;;;-3.51;100.00
40384;BME280;26097;42.366;23.818;2023-12-20T06:03:41;94018.28;;;-3.47;100.00
40384;BME280;26097;42.366;23.818;2023-12-20T06:06:44;94022.44;;;-3.43;100.00
40384;BME280;26097;42.366;23.818;2023-12-20T06:09:43;94014.75;;;-3.41;100.00
40384;BME280;26097;42.366;23.818;2023-12-20T06:12:42;94025.69;;;-3.38;100.00
40384;BME280;26097;42.366;23.818;2023-12-20T06:15:42;94024.03;;;-3.39;100.00
40384;BME280;26097;42.366;23.818;2023-12-20T06:18:41;94015.31;;;-3.28;100.00
40384;BME280;26097;42.366;23.818;2023-12-20T06:21:41;94015.81;;;-3.14;100.00
40384;BME280;26097;42.366;23.818;2023-12-20T06:24:40;94009.78;;;-3.10;100.00
40384;BME280;26097;42.366;23.818;2023-12-20T06:27:40;94005.28;;;-3.00;100.00
40384;BME280;26097;42.366;23.818;2023-12-20T06:30:40;94000.88;;;-2.93;100.00
40384;BME280;26097;42.366;23.818;2023-12-20T06:33:39;94001.50;;;-2.85;100.00
40384;BME280;26097;42.366;23.818;2023-12-20T06:36:40;93996.97;;;-2.74;100.00
40384;BME280;26097;42.366;23.818;2023-12-20T06:39:39;93999.38;;;-2.69;100.00
40384;BME280;26097;42.366;23.818;2023-12-20T06:42:39;94002.59;;;-2.61;100.00
40384;BME280;26097;42.366;23.818;2023-12-20T06:45:38;94011.72;;;-2.52;100.00
40384;BME280;26097;42.366;23.818;2023-12-20T06:48:37;94005.53;;;-2.43;100.00
40384;BME280;26097;42.366;23.818;2023-12-20T06:51:37;94007.63;;;-2.26;100.00
40384;BME280;26097;42.366;23.818;2023-12-20T06:54:36;93999.34;;;-2.04;100.00
40384;BME280;26097;42.366;23.818;2023-12-20T06:57:35;93992.25;;;-1.94;100.00
40384;BME280;26097;42.366;23.818;2023-12-20T07:00:35;94005.91;;;-1.95;100.00
40384;BME280;26097;42.366;23.818;2023-12-20T07:03:35;94006.69;;;-1.92;100.00
40384;BME280;26097;42.366;23.818;2023-12-20T07:06:34;94007.41;;;-1.88;100.00
40384;BME280;26097;42.366;23.818;2023-12-20T07:09:33;93996.06;;;-1.78;100.00
40384;BME280;26097;42.366;23.818;2023-12-20T07:12:33;93998.06;;;-1.59;100.00
40384;BME280;26097;42.366;23.818;2023-12-20T07:15:32;93984.91;;;-1.47;100.00
40384;BME280;26097;42.366;23.818;2023-12-20T07:18:31;93980.84;;;-1.25;100.00
40384;BME280;26097;42.366;23.818;2023-12-20T07:21:31;93975.22;;;-1.10;100.00
40384;BME280;26097;42.366;23.818;2023-12-20T07:24:30;93965.31;;;-0.94;100.00
40384;BME280;26097;42.366;23.818;2023-12-20T07:27:29;93965.56;;;-0.75;100.00
40384;BME280;26097;42.366;23.818;2023-12-20T07:30:29;93963.91;;;-0.52;100.00
40384;BME280;26097;42.366;23.818;2023-12-20T07:33:28;93968.94;;;-0.25;100.00
40384;BME280;26097;42.366;23.818;2023-12-20T07:36:28;93973.91;;;0.04;100.00
40384;BME280;26097;42.366;23.818;2023-12-20T07:39:27;93965.13;;;0.33;100.00
40384;BME280;26097;42.366;23.818;2023-12-20T07:42:26;93959.91;;;0.59;100.00
40384;BME280;26097;42.366;23.818;2023-12-20T07:45:26;93964.94;;;0.82;100.00
40384;BME280;26097;42.366;23.818;2023-12-20T07:48:25;93962.34;;;1.05;100.00
40384;BME280;26097;42.366;23.818;2023-12-20T07:51:24;93959.84;;;1.24;100.00
40384;BME280;26097;42.366;23.818;2023-12-20T07:54:24;93961.72;;;1.41;100.00
40384;BME280;26097;42.366;23.818;2023-12-20T07:57:23;93960.28;;;1.54;100.00
40384;BME280;26097;42.366;23.818;2023-12-20T08:00:23;93954.06;;;1.60;100.00
40384;BME280;26097;42.366;23.818;2023-12-20T08:03:22;93949.75;;;1.61;100.00
40384;BME280;26097;42.366;23.818;2023-12-20T08:06:21;93948.78;;;1.63;100.00
40384;BME280;26097;42.366;23.818;2023-12-20T08:09:21;93946.91;;;1.67;100.00
40384;BME280;26097;42.366;23.818;2023-12-20T08:12:20;93940.88;;;1.68;100.00
40384;BME280;26097;42.366;23.818;2023-12-20T08:15:20;93925.34;;;1.90;100.00
40384;BME280;26097;42.366;23.818;2023-12-20T08:18:19;93917.06;;;2.03;100.00
40384;BME280;26097;42.366;23.818;2023-12-20T08:21:19;93911.44;;;2.13;100.00
40384;BME280;26097;42.366;23.818;2023-12-20T08:24:21;93911.31;;;2.17;100.00
40384;BME280;26097;42.366;23.818;2023-12-20T08:27:21;93917.63;;;2.28;100.00
40384;BME280;26097;42.366;23.818;2023-12-20T08:30:20;93923.38;;;2.34;100.00
40384;BME280;26097;42.366;23.818;2023-12-20T08:33:20;93919.34;;;2.47;100.00
40384;BME280;26097;42.366;23.818;2023-12-20T08:36:21;93921.41;;;2.58;100.00
40384;BME280;26097;42.366;23.818;2023-12-20T08:39:21;93921.94;;;2.65;100.00
40384;BME280;26097;42.366;23.818;2023-12-20T08:42:21;93915.66;;;2.70;100.00
40384;BME280;26097;42.366;23.818;2023-12-20T08:45:20;93908.84;;;2.69;100.00
40384;BME280;26097;42.366;23.818;2023-12-20T08:48:19;93899.31;;;2.89;100.00
40384;BME280;26097;42.366;23.818;2023-12-20T08:51:19;93899.94;;;3.12;100.00
40384;BME280;26097;42.366;23.818;2023-12-20T08:54:18;93891.28;;;3.31;100.00
40384;BME280;26097;42.366;23.818;2023-12-20T08:57:22;93893.75;;;3.50;100.00
40384;BME280;26097;42.366;23.818;2023-12-20T09:00:22;93895.22;;;3.38;100.00
40384;BME280;26097;42.366;23.818;2023-12-20T09:03:25;93877.53;;;3.81;100.00
40384;BME280;26097;42.366;23.818;2023-12-20T09:06:24;93878.13;;;4.19;100.00
40384;BME280;26097;42.366;23.818;2023-12-20T09:09:24;93869.28;;;4.55;100.00
40384;BME280;26097;42.366;23.818;2023-12-20T09:12:23;93849.13;;;4.92;100.00
40384;BME280;26097;42.366;23.818;2023-12-20T09:15:23;93837.00;;;5.38;100.00
40384;BME280;26097;42.366;23.818;2023-12-20T09:18:23;93840.91;;;5.00;100.00
40384;BME280;26097;42.366;23.818;2023-12-20T09:21:23;93822.59;;;5.19;100.00
40384;BME280;26097;42.366;23.818;2023-12-20T09:24:23;93814.28;;;5.72;100.00
40384;BME280;26097;42.366;23.818;2023-12-20T09:27:22;93825.88;;;5.94;100.00
40384;BME280;26097;42.366;23.818;2023-12-20T09:30:21;93822.31;;;5.82;100.00
40384;BME280;26097;42.366;23.818;2023-12-20T09:33:21;93824.66;;;6.14;100.00
40384;BME280;26097;42.366;23.818;2023-12-20T09:36:20;93820.94;;;6.46;100.00
40384;BME280;26097;42.366;23.818;2023-12-20T09:39:20;93818.38;;;6.46;100.00
40384;BME280;26097;42.366;23.818;2023-12-20T09:42:29;93819.28;;;6.17;100.00
40384;BME280;26097;42.366;23.818;2023-12-20T09:45:32;93809.00;;;6.03;100.00
40384;BME280;26097;42.366;23.818;2023-12-20T09:48:32;93800.91;;;6.07;100.00
40384;BME280;26097;42.366;23.818;2023-12-20T09:51:32;93797.97;;;5.99;100.00
40384;BME280;26097;42.366;23.818;2023-12-20T09:54:31;93783.75;;;6.06;100.00
40384;BME280;26097;42.366;23.818;2023-12-20T09:57:32;93767.28;;;6.07;100.00
40384;BME280;26097;42.366;23.818;2023-12-20T10:00:31;93765.81;;;5.89;100.00
40384;BME280;26097;42.366;23.818;2023-12-20T10:03:31;93755.72;;;5.71;100.00
40384;BME280;26097;42.366;23.818;2023-12-20T10:06:30;93751.84;;;5.64;100.00
40384;BME280;26097;42.366;23.818;2023-12-20T10:09:31;93753.16;;;5.42;100.00
40384;BME280;26097;42.366;23.818;2023-12-20T10:12:31;93757.81;;;5.22;100.00
40384;BME280;26097;42.366;23.818;2023-12-20T10:15:30;93749.75;;;4.98;100.00
40384;BME280;26097;42.366;23.818;2023-12-20T10:18:30;93749.81;;;4.67;100.00
40384;BME280;26097;42.366;23.818;2023-12-20T10:21:30;93741.88;;;4.70;100.00
40384;BME280;26097;42.366;23.818;2023-12-20T10:24:29;93738.22;;;4.75;100.00
40384;BME280;26097;42.366;23.818;2023-12-20T10:27:29;93726.56;;;4.67;100.00
40384;BME280;26097;42.366;23.818;2023-12-20T10:30:28;93720.78;;;4.78;100.00
40384;BME280;26097;42.366;23.818;2023-12-20T10:33:30;93725.31;;;4.75;100.00
40384;BME280;26097;42.366;23.818;2023-12-20T10:36:33;93715.72;;;4.77;100.00
40384;BME280;26097;42.366;23.818;2023-12-20T10:39:32;93705.22;;;4.94;100.00
40384;BME280;26097;42.366;23.818;2023-12-20T10:42:32;93705.47;;;5.19;100.00
40384;BME280;26097;42.366;23.818;2023-12-20T10:45:33;93690.66;;;5.50;100.00
40384;BME280;26097;42.366;23.818;2023-12-20T10:48:33;93686.72;;;5.71;100.00
40384;BME280;26097;42.366;23.818;2023-12-20T10:51:33;93679.56;;;5.90;100.00
40384;BME280;26097;42.366;23.818;2023-12-20T10:54:34;93674.72;;;6.25;100.00
40384;BME280;26097;42.366;23.818;2023-12-20T10:57:36;93677.44;;;6.50;100.00
40384;BME280;26097;42.366;23.818;2023-12-20T11:00:45;93672.78;;;6.81;100.00
40384;BME280;26097;42.366;23.818;2023-12-20T11:03:53;93665.09;;;6.92;100.00
40384;BME280;26097;42.366;23.818;2023-12-20T11:06:58;93660.00;;;7.04;100.00
40384;BME280;26097;42.366;23.818;2023-12-20T11:10:09;93652.94;;;7.06;100.00
40384;BME280;26097;42.366;23.818;2023-12-20T11:13:19;93647.16;;;7.02;100.00
40384;BME280;26097;42.366;23.818;2023-12-20T11:16:19;93632.03;;;7.09;100.00
40384;BME280;26097;42.366;23.818;2023-12-20T11:19:19;93630.38;;;7.08;100.00
40384;BME280;26097;42.366;23.818;2023-12-20T11:22:22;93636.81;;;7.02;100.00
40384;BME280;26097;42.366;23.818;2023-12-20T11:25:21;93628.28;;;7.13;100.00
40384;BME280;26097;42.366;23.818;2023-12-20T11:28:23;93632.31;;;7.17;100.00
40384;BME280;26097;42.366;23.818;2023-12-20T11:31:22;93632.25;;;7.30;100.00
40384;BME280;26097;42.366;23.818;2023-12-20T11:34:22;93629.28;;;7.23;100.00
40384;BME280;26097;42.366;23.818;2023-12-20T11:37:21;93619.06;;;7.09;100.00
40384;BME280;26097;42.366;23.818;2023-12-20T11:40:23;93619.19;;;6.94;100.00
40384;BME280;26097;42.366;23.818;2023-12-20T11:43:38;93614.53;;;6.86;100.00
40384;BME280;26097;42.366;23.818;2023-12-20T11:46:38;93604.66;;;6.92;100.00
40384;BME280;26097;42.366;23.818;2023-12-20T11:49:38;93602.59;;;6.97;100.00
40384;BME280;26097;42.366;23.818;2023-12-20T11:52:37;93606.13;;;7.33;100.00
40384;BME280;26097;42.366;23.818;2023-12-20T11:55:37;93593.31;;;7.43;100.00
40384;BME280;26097;42.366;23.818;2023-12-20T11:58:36;93593.69;;;7.38;100.00
40384;BME280;26097;42.366;23.818;2023-12-20T12:01:36;93583.63;;;7.34;100.00
40384;BME280;26097;42.366;23.818;2023-12-20T12:04:35;93595.75;;;7.33;100.00
40384;BME280;26097;42.366;23.818;2023-12-20T12:07:35;93589.03;;;7.31;100.00
40384;BME280;26097;42.366;23.818;2023-12-20T12:10:34;93581.47;;;7.27;100.00
40384;BME280;26097;42.366;23.818;2023-12-20T12:13:34;93580.19;;;7.09;100.00
40384;BME280;26097;42.366;23.818;2023-12-20T12:16:34;93577.00;;;6.92;100.00
40384;BME280;26097;42.366;23.818;2023-12-20T12:19:33;93573.72;;;6.90;100.00
40384;BME280;26097;42.366;23.818;2023-12-20T12:22:36;93566.53;;;6.94;100.00
40384;BME280;26097;42.366;23.818;2023-12-20T12:25:36;93560.09;;;6.99;100.00
40384;BME280;26097;42.366;23.818;2023-12-20T12:28:41;93570.25;;;7.03;100.00
40384;BME280;26097;42.366;23.818;2023-12-20T12:31:41;93566.94;;;7.00;100.00
40384;BME280;26097;42.366;23.818;2023-12-20T12:34:40;93556.66;;;7.12;100.00
40384;BME280;26097;42.366;23.818;2023-12-20T12:37:41;93551.72;;;7.20;100.00
40384;BME280;26097;42.366;23.818;2023-12-20T12:40:43;93549.03;;;7.22;100.00
40384;BME280;26097;42.366;23.818;2023-12-20T12:43:42;93552.66;;;7.19;100.00
40384;BME280;26097;42.366;23.818;2023-12-20T12:46:42;93549.25;;;7.19;100.00
40384;BME280;26097;42.366;23.818;2023-12-20T12:49:41;93548.44;;;7.18;100.00
40384;BME280;26097;42.366;23.818;2023-12-20T12:52:41;93548.91;;;7.23;100.00
40384;BME280;26097;42.366;23.818;2023-12-20T12:55:40;93543.31;;;7.29;100.00
40384;BME280;26097;42.366;23.818;2023-12-20T12:58:40;93534.63;;;7.42;100.00
40384;BME280;26097;42.366;23.818;2023-12-20T13:01:39;93534.56;;;7.55;100.00
40384;BME280;26097;42.366;23.818;2023-12-20T13:04:39;93529.59;;;7.52;100.00
40384;BME280;26097;42.366;23.818;2023-12-20T13:07:38;93529.03;;;7.60;100.00
40384;BME280;26097;42.366;23.818;2023-12-20T13:10:38;93540.59;;;7.55;100.00
40384;BME280;26097;42.366;23.818;2023-12-20T13:13:38;93535.63;;;7.52;100.00
40384;BME280;26097;42.366;23.818;2023-12-20T13:16:37;93536.81;;;7.48;100.00
40384;BME280;26097;42.366;23.818;2023-12-20T13:19:36;93538.16;;;7.41;100.00
40384;BME280;26097;42.366;23.818;2023-12-20T13:22:36;93534.25;;;7.35;100.00
40384;BME280;26097;42.366;23.818;2023-12-20T13:25:35;93533.25;;;7.25;100.00
40384;BME280;26097;42.366;23.818;2023-12-20T13:28:35;93532.97;;;7.17;100.00
40384;BME280;26097;42.366;23.818;2023-12-20T13:31:34;93529.16;;;7.09;100.00
40384;BME280;26097;42.366;23.818;2023-12-20T13:34:35;93522.38;;;6.95;100.00
40384;BME280;26097;42.366;23.818;2023-12-20T13:37:35;93528.59;;;6.68;100.00
40384;BME280;26097;42.366;23.818;2023-12-20T13:40:34;93525.91;;;6.57;100.00
40384;BME280;26097;42.366;23.818;2023-12-20T13:43:34;93521.47;;;6.46;100.00
40384;BME280;26097;42.366;23.818;2023-12-20T13:46:33;93523.34;;;6.31;100.00
40384;BME280;26097;42.366;23.818;2023-12-20T13:49:33;93519.44;;;6.12;100.00
40384;BME280;26097;42.366;23.818;2023-12-20T13:52:32;93513.59;;;5.96;100.00
40384;BME280;26097;42.366;23.818;2023-12-20T13:55:31;93508.84;;;5.90;100.00
40384;BME280;26097;42.366;23.818;2023-12-20T13:58:31;93511.72;;;5.72;100.00
40384;BME280;26097;42.366;23.818;2023-12-20T14:01:30;93512.81;;;5.55;100.00
40384;BME280;26097;42.366;23.818;2023-12-20T14:04:29;93516.50;;;5.38;100.00
40384;BME280;26097;42.366;23.818;2023-12-20T14:07:30;93523.09;;;5.29;100.00
40384;BME280;26097;42.366;23.818;2023-12-20T14:10:29;93520.06;;;5.22;100.00
40384;BME280;26097;42.366;23.818;2023-12-20T14:13:29;93509.47;;;4.99;100.00
40384;BME280;26097;42.366;23.818;2023-12-20T14:16:28;93506.84;;;4.72;100.00
40384;BME280;26097;42.366;23.818;2023-12-20T14:19:28;93505.34;;;4.55;100.00
40384;BME280;26097;42.366;23.818;2023-12-20T14:22:27;93502.50;;;4.45;100.00
40384;BME280;26097;42.366;23.818;2023-12-20T14:25:28;93500.94;;;4.28;100.00
40384;BME280;26097;42.366;23.818;2023-12-20T14:28:28;93506.94;;;4.14;100.00
40384;BME280;26097;42.366;23.818;2023-12-20T14:31:27;93503.53;;;3.99;100.00
40384;BME280;26097;42.366;23.818;2023-12-20T14:34:26;93500.75;;;3.88;100.00
40384;BME280;26097;42.366;23.818;2023-12-20T14:37:26;93504.50;;;3.82;100.00
40384;BME280;26097;42.366;23.818;2023-12-20T14:40:25;93504.94;;;3.60;100.00
40384;BME280;26097;42.366;23.818;2023-12-20T14:43:25;93503.06;;;3.47;100.00
40384;BME280;26097;42.366;23.818;2023-12-20T14:46:25;93512.41;;;3.34;100.00
40384;BME280;26097;42.366;23.818;2023-12-20T14:49:25;93503.75;;;3.20;100.00
40384;BME280;26097;42.366;23.818;2023-12-20T14:52:25;93505.00;;;3.13;100.00
40384;BME280;26097;42.366;23.818;2023-12-20T14:55:25;93498.03;;;2.99;100.00
40384;BME280;26097;42.366;23.818;2023-12-20T14:58:26;93509.38;;;2.96;100.00
40384;BME280;26097;42.366;23.818;2023-12-20T15:01:26;93505.06;;;2.81;100.00
40384;BME280;26097;42.366;23.818;2023-12-20T15:04:25;93508.41;;;2.67;100.00
40384;BME280;26097;42.366;23.818;2023-12-20T15:07:27;93506.22;;;2.59;100.00
40384;BME280;26097;42.366;23.818;2023-12-20T15:10:27;93504.81;;;2.53;100.00
40384;BME280;26097;42.366;23.818;2023-12-20T15:13:26;93507.63;;;2.33;100.00
40384;BME280;26097;42.366;23.818;2023-12-20T15:16:26;93503.81;;;2.24;100.00
40384;BME280;26097;42.366;23.818;2023-12-20T15:19:25;93511.97;;;2.14;100.00
40384;BME280;26097;42.366;23.818;2023-12-20T15:22:25;93509.16;;;2.03;100.00
40384;BME280;26097;42.366;23.818;2023-12-20T15:25:25;93506.75;;;2.00;100.00
40384;BME280;26097;42.366;23.818;2023-12-20T15:28:25;93510.53;;;1.93;100.00
40384;BME280;26097;42.366;23.818;2023-12-20T15:31:24;93507.16;;;1.92;100.00
40384;BME280;26097;42.366;23.818;2023-12-20T15:34:26;93508.28;;;1.87;100.00